sensor_id;sensor_type;location;lat;lon;timestamp;P1;durP1;ratioP1;P2;durP2;ratioP2
67997;SDS011;54773;53.388;-1.504;2023-09-12T00:02:04;11.13;;;6.97;;
67997;SDS011;54773;53.388;-1.504;2023-09-12T00:04:49;11.57;;;7.25;;
67997;SDS011;54773;53.388;-1.504;2023-09-12T00:07:35;11.75;;;7.50;;
67997;SDS011;54773;53.388;-1.504;2023-09-12T00:10:20;14.18;;;7.93;;
67997;SDS011;54773;53.388;-1.504;2023-09-12T00:13:04;11.07;;;7.40;;
67997;SDS011;54773;53.388;-1.504;2023-09-12T00:15:48;9.90;;;6.43;;
67997;SDS011;54773;53.388;-1.504;2023-09-12T00:18:32;12.10;;;8.07;;
67997;SDS011;54773;53.388;-1.504;2023-09-12T00:21:18;11.05;;;7.70;;
67997;SDS011;54773;53.388;-1.504;2023-09-12T00:24:02;11.10;;;7.47;;
67997;SDS011;54773;53.388;-1.504;2023-09-12T00:26:46;11.70;;;7.28;;
67997;SDS011;54773;53.388;-1.504;2023-09-12T00:29:30;10.55;;;7.63;;
67997;SDS011;54773;53.388;-1.504;2023-09-12T00:32:17;12.40;;;7.40;;
67997;SDS011;54773;53.388;-1.504;2023-09-12T00:35:01;10.70;;;7.20;;
67997;SDS011;54773;53.388;-1.504;2023-09-12T00:37:45;9.32;;;6.75;;
67997;SDS011;54773;53.388;-1.504;2023-09-12T00:40:29;11.80;;;8.23;;
67997;SDS011;54773;53.388;-1.504;2023-09-12T00:43:12;11.85;;;7.80;;
67997;SDS011;54773;53.388;-1.504;2023-09-12T00:45:56;10.55;;;7.10;;
67997;SDS011;54773;53.388;-1.504;2023-09-12T00:48:40;11.63;;;8.07;;
67997;SDS011;54773;53.388;-1.504;2023-09-12T00:51:24;11.32;;;7.47;;
67997;SDS011;54773;53.388;-1.504;2023-09-12T00:54:09;11.30;;;7.13;;
67997;SDS011;54773;53.388;-1.504;2023-09-12T00:56:56;10.27;;;7.10;;
67997;SDS011;54773;53.388;-1.504;2023-09-12T00:59:40;9.90;;;6.57;;
67997;SDS011;54773;53.388;-1.504;2023-09-12T01:02:24;9.60;;;5.90;;
67997;SDS011;54773;53.388;-1.504;2023-09-12T01:05:08;9.50;;;6.20;;
67997;SDS011;54773;53.388;-1.504;2023-09-12T01:07:53;8.90;;;5.63;;
67997;SDS011;54773;53.388;-1.504;2023-09-12T01:10:37;9.32;;;6.10;;
67997;SDS011;54773;53.388;-1.504;2023-09-12T01:13:21;10.38;;;6.57;;
67997;SDS011;54773;53.388;-1.504;2023-09-12T01:16:05;8.20;;;5.50;;
67997;SDS011;54773;53.388;-1.504;2023-09-12T01:18:49;10.47;;;6.40;;
67997;SDS011;54773;53.388;-1.504;2023-09-12T01:25:06;12.20;;;5.90;;
67997;SDS011;54773;53.388;-1.504;2023-09-12T01:27:52;8.40;;;4.95;;
67997;SDS011;54773;53.388;-1.504;2023-09-12T01:30:39;8.65;;;5.10;;
67997;SDS011;54773;53.388;-1.504;2023-09-12T01:33:23;8.68;;;4.78;;
67997;SDS011;54773;53.388;-1.504;2023-09-12T01:36:10;6.05;;;3.83;;
67997;SDS011;54773;53.388;-1.504;2023-09-12T01:38:54;6.03;;;3.63;;
67997;SDS011;54773;53.388;-1.504;2023-09-12T01:41:39;6.60;;;3.92;;
67997;SDS011;54773;53.388;-1.504;2023-09-12T01:44:27;9.93;;;4.70;;
67997;SDS011;54773;53.388;-1.504;2023-09-12T01:47:12;7.55;;;4.40;;
67997;SDS011;54773;53.388;-1.504;2023-09-12T01:49:57;7.25;;;4.50;;
67997;SDS011;54773;53.388;-1.504;2023-09-12T01:52:43;6.85;;;4.15;;
67997;SDS011;54773;53.388;-1.504;2023-09-12T01:55:27;6.05;;;3.63;;
67997;SDS011;54773;53.388;-1.504;2023-09-12T01:58:13;6.45;;;4.03;;
67997;SDS011;54773;53.388;-1.504;2023-09-12T02:01:01;8.15;;;4.78;;
67997;SDS011;54773;53.388;-1.504;2023-09-12T02:03:45;8.18;;;4.45;;
67997;SDS011;54773;53.388;-1.504;2023-09-12T02:06:30;6.35;;;4.18;;
67997;SDS011;54773;53.388;-1.504;2023-09-12T02:09:14;6.60;;;4.20;;
67997;SDS011;54773;53.388;-1.504;2023-09-12T02:11:58;6.63;;;3.88;;
67997;SDS011;54773;53.388;-1.504;2023-09-12T02:14:42;7.47;;;4.60;;
67997;SDS011;54773;53.388;-1.504;2023-09-12T02:17:26;7.07;;;4.43;;
67997;SDS011;54773;53.388;-1.504;2023-09-12T02:20:10;7.70;;;4.15;;
67997;SDS011;54773;53.388;-1.504;2023-09-12T02:22:54;6.50;;;4.15;;
67997;SDS011;54773;53.388;-1.504;2023-09-12T02:25:38;6.78;;;4.03;;
67997;SDS011;54773;53.388;-1.504;2023-09-12T02:28:22;6.67;;;3.60;;
67997;SDS011;54773;53.388;-1.504;2023-09-12T02:31:10;6.18;;;3.55;;
67997;SDS011;54773;53.388;-1.504;2023-09-12T02:33:55;6.15;;;3.55;;
67997;SDS011;54773;53.388;-1.504;2023-09-12T02:36:39;7.72;;;4.13;;
67997;SDS011;54773;53.388;-1.504;2023-09-12T02:39:23;7.93;;;4.13;;
67997;SDS011;54773;53.388;-1.504;2023-09-12T02:42:07;7.50;;;4.32;;
67997;SDS011;54773;53.388;-1.504;2023-09-12T02:44:51;6.45;;;3.67;;
67997;SDS011;54773;53.388;-1.504;2023-09-12T02:47:36;9.15;;;4.40;;
67997;SDS011;54773;53.388;-1.504;2023-09-12T02:50:20;7.10;;;4.00;;
67997;SDS011;54773;53.388;-1.504;2023-09-12T02:53:04;7.07;;;4.40;;
67997;SDS011;54773;53.388;-1.504;2023-09-12T02:55:48;7.32;;;3.65;;
67997;SDS011;54773;53.388;-1.504;2023-09-12T02:58:35;6.85;;;3.70;;
67997;SDS011;54773;53.388;-1.504;2023-09-12T03:01:20;7.93;;;4.20;;
67997;SDS011;54773;53.388;-1.504;2023-09-12T03:04:05;8.20;;;4.43;;
67997;SDS011;54773;53.388;-1.504;2023-09-12T03:06:49;7.97;;;4.90;;
67997;SDS011;54773;53.388;-1.504;2023-09-12T03:09:32;8.73;;;4.60;;
67997;SDS011;54773;53.388;-1.504;2023-09-12T03:12:17;8.60;;;4.38;;
67997;SDS011;54773;53.388;-1.504;2023-09-12T03:15:00;8.30;;;4.15;;
67997;SDS011;54773;53.388;-1.504;2023-09-12T03:17:46;6.00;;;3.72;;
67997;SDS011;54773;53.388;-1.504;2023-09-12T03:20:29;6.38;;;3.10;;
67997;SDS011;54773;53.388;-1.504;2023-09-12T03:23:13;7.80;;;2.75;;
67997;SDS011;54773;53.388;-1.504;2023-09-12T03:26:04;5.30;;;2.50;;
67997;SDS011;54773;53.388;-1.504;2023-09-12T03:28:49;6.03;;;3.10;;
67997;SDS011;54773;53.388;-1.504;2023-09-12T03:31:36;5.25;;;2.85;;
67997;SDS011;54773;53.388;-1.504;2023-09-12T03:34:20;6.40;;;3.10;;
67997;SDS011;54773;53.388;-1.504;2023-09-12T03:37:04;5.72;;;3.13;;
67997;SDS011;54773;53.388;-1.504;2023-09-12T03:39:48;5.53;;;3.10;;
67997;SDS011;54773;53.388;-1.504;2023-09-12T03:42:32;6.93;;;3.70;;
67997;SDS011;54773;53.388;-1.504;2023-09-12T03:45:16;5.85;;;3.90;;
67997;SDS011;54773;53.388;-1.504;2023-09-12T03:48:00;6.32;;;3.90;;
67997;SDS011;54773;53.388;-1.504;2023-09-12T03:50:45;6.10;;;3.90;;
67997;SDS011;54773;53.388;-1.504;2023-09-12T03:53:29;6.97;;;4.13;;
67997;SDS011;54773;53.388;-1.504;2023-09-12T03:56:13;7.25;;;4.05;;
67997;SDS011;54773;53.388;-1.504;2023-09-12T03:59:00;6.13;;;3.70;;
67997;SDS011;54773;53.388;-1.504;2023-09-12T04:01:44;8.20;;;4.40;;
67997;SDS011;54773;53.388;-1.504;2023-09-12T04:04:28;8.40;;;5.18;;
67997;SDS011;54773;53.388;-1.504;2023-09-12T04:07:12;10.52;;;6.60;;
67997;SDS011;54773;53.388;-1.504;2023-09-12T04:09:56;10.95;;;6.80;;
67997;SDS011;54773;53.388;-1.504;2023-09-12T04:12:40;11.95;;;6.20;;
67997;SDS011;54773;53.388;-1.504;2023-09-12T04:15:24;9.57;;;6.10;;
67997;SDS011;54773;53.388;-1.504;2023-09-12T04:18:08;9.82;;;5.80;;
67997;SDS011;54773;53.388;-1.504;2023-09-12T04:20:52;10.48;;;6.20;;
67997;SDS011;54773;53.388;-1.504;2023-09-12T04:23:36;10.63;;;6.90;;
67997;SDS011;54773;53.388;-1.504;2023-09-12T04:26:20;11.70;;;6.83;;
67997;SDS011;54773;53.388;-1.504;2023-09-12T04:29:04;9.30;;;5.78;;
67997;SDS011;54773;53.388;-1.504;2023-09-12T04:31:47;10.50;;;6.90;;
67997;SDS011;54773;53.388;-1.504;2023-09-12T04:34:32;9.82;;;5.93;;
67997;SDS011;54773;53.388;-1.504;2023-09-12T04:37:16;10.38;;;6.75;;
67997;SDS011;54773;53.388;-1.504;2023-09-12T04:40:01;10.73;;;6.22;;
67997;SDS011;54773;53.388;-1.504;2023-09-12T04:42:49;10.65;;;5.28;;
67997;SDS011;54773;53.388;-1.504;2023-09-12T04:45:36;9.15;;;4.90;;
67997;SDS011;54773;53.388;-1.504;2023-09-12T04:48:19;9.83;;;5.60;;
67997;SDS011;54773;53.388;-1.504;2023-09-12T04:51:03;6.55;;;4.10;;
67997;SDS011;54773;53.388;-1.504;2023-09-12T04:53:48;6.05;;;3.70;;
67997;SDS011;54773;53.388;-1.504;2023-09-12T04:56:35;7.57;;;4.10;;
67997;SDS011;54773;53.388;-1.504;2023-09-12T04:59:19;5.72;;;3.55;;
67997;SDS011;54773;53.388;-1.504;2023-09-12T05:02:03;6.43;;;3.20;;
67997;SDS011;54773;53.388;-1.504;2023-09-12T05:04:47;4.25;;;2.40;;
67997;SDS011;54773;53.388;-1.504;2023-09-12T05:07:31;3.42;;;2.10;;
67997;SDS011;54773;53.388;-1.504;2023-09-12T05:10:15;4.25;;;2.63;;
67997;SDS011;54773;53.388;-1.504;2023-09-12T05:12:59;5.30;;;2.67;;
67997;SDS011;54773;53.388;-1.504;2023-09-12T05:15:44;3.77;;;2.20;;
67997;SDS011;54773;53.388;-1.504;2023-09-12T05:18:28;4.80;;;2.40;;
67997;SDS011;54773;53.388;-1.504;2023-09-12T05:21:11;5.28;;;2.40;;
67997;SDS011;54773;53.388;-1.504;2023-09-12T05:23:55;3.95;;;2.10;;
67997;SDS011;54773;53.388;-1.504;2023-09-12T05:26:39;4.55;;;2.00;;
67997;SDS011;54773;53.388;-1.504;2023-09-12T05:29:23;4.27;;;2.13;;
67997;SDS011;54773;53.388;-1.504;2023-09-12T05:32:07;4.17;;;2.37;;
67997;SDS011;54773;53.388;-1.504;2023-09-12T05:34:51;5.60;;;2.63;;
67997;SDS011;54773;53.388;-1.504;2023-09-12T05:37:35;6.28;;;3.40;;
67997;SDS011;54773;53.388;-1.504;2023-09-12T05:40:19;5.73;;;2.87;;
67997;SDS011;54773;53.388;-1.504;2023-09-12T05:43:03;4.97;;;2.55;;
67997;SDS011;54773;53.388;-1.504;2023-09-12T05:45:47;4.72;;;2.55;;
67997;SDS011;54773;53.388;-1.504;2023-09-12T05:48:31;5.43;;;2.13;;
67997;SDS011;54773;53.388;-1.504;2023-09-12T05:51:15;4.13;;;2.40;;
67997;SDS011;54773;53.388;-1.504;2023-09-12T05:53:59;4.00;;;2.35;;
67997;SDS011;54773;53.388;-1.504;2023-09-12T05:56:44;3.83;;;2.15;;
67997;SDS011;54773;53.388;-1.504;2023-09-12T05:59:28;4.07;;;2.03;;
67997;SDS011;54773;53.388;-1.504;2023-09-12T06:02:12;4.10;;;1.90;;
67997;SDS011;54773;53.388;-1.504;2023-09-12T06:04:56;3.45;;;2.10;;
67997;SDS011;54773;53.388;-1.504;2023-09-12T06:07:40;4.07;;;2.10;;
67997;SDS011;54773;53.388;-1.504;2023-09-12T06:10:24;3.42;;;1.83;;
67997;SDS011;54773;53.388;-1.504;2023-09-12T06:13:12;3.03;;;1.38;;
67997;SDS011;54773;53.388;-1.504;2023-09-12T06:15:56;2.95;;;1.60;;
67997;SDS011;54773;53.388;-1.504;2023-09-12T06:18:40;2.90;;;1.27;;
67997;SDS011;54773;53.388;-1.504;2023-09-12T06:21:24;3.55;;;1.38;;
67997;SDS011;54773;53.388;-1.504;2023-09-12T06:24:12;3.03;;;1.40;;
67997;SDS011;54773;53.388;-1.504;2023-09-12T06:26:57;3.17;;;1.58;;
67997;SDS011;54773;53.388;-1.504;2023-09-12T06:29:42;4.60;;;1.70;;
67997;SDS011;54773;53.388;-1.504;2023-09-12T06:32:29;2.77;;;1.27;;
67997;SDS011;54773;53.388;-1.504;2023-09-12T06:35:14;4.20;;;1.60;;
67997;SDS011;54773;53.388;-1.504;2023-09-12T06:37:58;5.38;;;2.28;;
67997;SDS011;54773;53.388;-1.504;2023-09-12T06:40:42;3.90;;;2.00;;
67997;SDS011;54773;53.388;-1.504;2023-09-12T06:43:27;3.65;;;2.00;;
67997;SDS011;54773;53.388;-1.504;2023-09-12T06:46:11;4.28;;;2.30;;
67997;SDS011;54773;53.388;-1.504;2023-09-12T06:48:55;3.83;;;1.90;;
67997;SDS011;54773;53.388;-1.504;2023-09-12T06:51:40;3.35;;;1.85;;
67997;SDS011;54773;53.388;-1.504;2023-09-12T06:54:24;3.65;;;1.80;;
67997;SDS011;54773;53.388;-1.504;2023-09-12T06:57:08;3.38;;;1.65;;
67997;SDS011;54773;53.388;-1.504;2023-09-12T06:59:52;4.25;;;2.30;;
67997;SDS011;54773;53.388;-1.504;2023-09-12T07:02:36;4.82;;;2.58;;
67997;SDS011;54773;53.388;-1.504;2023-09-12T07:05:21;4.85;;;2.30;;
67997;SDS011;54773;53.388;-1.504;2023-09-12T07:08:05;4.22;;;2.35;;
67997;SDS011;54773;53.388;-1.504;2023-09-12T07:10:49;4.22;;;2.50;;
67997;SDS011;54773;53.388;-1.504;2023-09-12T07:13:33;3.90;;;2.23;;
67997;SDS011;54773;53.388;-1.504;2023-09-12T07:16:17;5.43;;;2.85;;
67997;SDS011;54773;53.388;-1.504;2023-09-12T07:19:06;4.85;;;2.47;;
67997;SDS011;54773;53.388;-1.504;2023-09-12T07:21:50;3.67;;;1.98;;
67997;SDS011;54773;53.388;-1.504;2023-09-12T07:24:34;3.97;;;2.03;;
67997;SDS011;54773;53.388;-1.504;2023-09-12T07:27:18;4.30;;;1.77;;
67997;SDS011;54773;53.388;-1.504;2023-09-12T07:30:03;5.07;;;1.90;;
67997;SDS011;54773;53.388;-1.504;2023-09-12T07:32:48;4.03;;;1.90;;
67997;SDS011;54773;53.388;-1.504;2023-09-12T07:35:32;4.60;;;1.98;;
67997;SDS011;54773;53.388;-1.504;2023-09-12T07:38:16;3.70;;;1.77;;
67997;SDS011;54773;53.388;-1.504;2023-09-12T07:41:03;3.72;;;1.90;;
67997;SDS011;54773;53.388;-1.504;2023-09-12T07:43:47;3.63;;;1.77;;
67997;SDS011;54773;53.388;-1.504;2023-09-12T07:46:31;3.58;;;1.98;;
67997;SDS011;54773;53.388;-1.504;2023-09-12T07:49:15;5.00;;;2.10;;
67997;SDS011;54773;53.388;-1.504;2023-09-12T07:51:59;4.93;;;3.22;;
67997;SDS011;54773;53.388;-1.504;2023-09-12T07:54:43;4.70;;;2.85;;
67997;SDS011;54773;53.388;-1.504;2023-09-12T07:57:27;4.57;;;2.40;;
67997;SDS011;54773;53.388;-1.504;2023-09-12T08:00:12;4.35;;;2.10;;
67997;SDS011;54773;53.388;-1.504;2023-09-12T08:02:56;3.30;;;2.03;;
67997;SDS011;54773;53.388;-1.504;2023-09-12T08:05:40;4.75;;;2.13;;
67997;SDS011;54773;53.388;-1.504;2023-09-12T08:08:25;2.90;;;1.30;;
67997;SDS011;54773;53.388;-1.504;2023-09-12T08:11:09;2.87;;;1.47;;
67997;SDS011;54773;53.388;-1.504;2023-09-12T08:13:53;5.60;;;1.40;;
67997;SDS011;54773;53.388;-1.504;2023-09-12T08:16:40;3.72;;;1.30;;
67997;SDS011;54773;53.388;-1.504;2023-09-12T08:19:24;3.38;;;1.90;;
67997;SDS011;54773;53.388;-1.504;2023-09-12T08:22:08;4.78;;;2.00;;
67997;SDS011;54773;53.388;-1.504;2023-09-12T08:24:53;4.35;;;1.60;;
67997;SDS011;54773;53.388;-1.504;2023-09-12T08:27:37;3.40;;;1.77;;
67997;SDS011;54773;53.388;-1.504;2023-09-12T08:30:21;3.63;;;1.67;;
67997;SDS011;54773;53.388;-1.504;2023-09-12T08:33:05;3.55;;;1.50;;
67997;SDS011;54773;53.388;-1.504;2023-09-12T08:35:50;3.63;;;1.75;;
67997;SDS011;54773;53.388;-1.504;2023-09-12T08:38:34;3.78;;;1.70;;
67997;SDS011;54773;53.388;-1.504;2023-09-12T08:41:18;2.33;;;0.95;;
67997;SDS011;54773;53.388;-1.504;2023-09-12T08:44:03;1.75;;;0.90;;
67997;SDS011;54773;53.388;-1.504;2023-09-12T08:46:49;2.38;;;1.10;;
67997;SDS011;54773;53.388;-1.504;2023-09-12T08:49:33;3.27;;;1.20;;
67997;SDS011;54773;53.388;-1.504;2023-09-12T08:52:18;2.25;;;1.10;;
67997;SDS011;54773;53.388;-1.504;2023-09-12T08:55:02;3.00;;;1.38;;
67997;SDS011;54773;53.388;-1.504;2023-09-12T08:57:50;3.40;;;1.65;;
67997;SDS011;54773;53.388;-1.504;2023-09-12T09:00:34;3.63;;;1.75;;
67997;SDS011;54773;53.388;-1.504;2023-09-12T09:03:20;3.55;;;2.00;;
67997;SDS011;54773;53.388;-1.504;2023-09-12T09:06:05;3.40;;;1.80;;
67997;SDS011;54773;53.388;-1.504;2023-09-12T09:08:50;3.70;;;1.90;;
67997;SDS011;54773;53.388;-1.504;2023-09-12T09:11:34;5.00;;;3.40;;
67997;SDS011;54773;53.388;-1.504;2023-09-12T09:14:18;6.40;;;3.92;;
67997;SDS011;54773;53.388;-1.504;2023-09-12T09:17:03;4.07;;;2.40;;
67997;SDS011;54773;53.388;-1.504;2023-09-12T09:19:47;4.43;;;2.28;;
67997;SDS011;54773;53.388;-1.504;2023-09-12T09:22:31;5.15;;;3.00;;
67997;SDS011;54773;53.388;-1.504;2023-09-12T09:25:15;4.30;;;2.50;;
67997;SDS011;54773;53.388;-1.504;2023-09-12T09:28:04;5.03;;;3.22;;
67997;SDS011;54773;53.388;-1.504;2023-09-12T09:30:49;4.90;;;3.05;;
67997;SDS011;54773;53.388;-1.504;2023-09-12T09:33:42;4.63;;;3.22;;
67997;SDS011;54773;53.388;-1.504;2023-09-12T09:36:34;5.80;;;3.50;;
67997;SDS011;54773;53.388;-1.504;2023-09-12T09:39:19;7.38;;;2.92;;
67997;SDS011;54773;53.388;-1.504;2023-09-12T09:42:04;4.05;;;2.15;;
67997;SDS011;54773;53.388;-1.504;2023-09-12T09:44:53;4.30;;;2.40;;
67997;SDS011;54773;53.388;-1.504;2023-09-12T09:47:37;4.90;;;2.50;;
67997;SDS011;54773;53.388;-1.504;2023-09-12T09:50:21;4.85;;;3.10;;
67997;SDS011;54773;53.388;-1.504;2023-09-12T09:53:06;5.10;;;3.25;;
67997;SDS011;54773;53.388;-1.504;2023-09-12T09:55:52;4.43;;;2.97;;
67997;SDS011;54773;53.388;-1.504;2023-09-12T09:58:36;5.37;;;3.17;;
67997;SDS011;54773;53.388;-1.504;2023-09-12T10:01:29;5.93;;;3.67;;
67997;SDS011;54773;53.388;-1.504;2023-09-12T10:04:15;6.43;;;3.53;;
67997;SDS011;54773;53.388;-1.504;2023-09-12T10:06:59;4.45;;;2.83;;
67997;SDS011;54773;53.388;-1.504;2023-09-12T10:09:44;6.25;;;2.80;;
67997;SDS011;54773;53.388;-1.504;2023-09-12T10:12:30;5.10;;;2.83;;
67997;SDS011;54773;53.388;-1.504;2023-09-12T10:15:28;6.30;;;2.45;;
67997;SDS011;54773;53.388;-1.504;2023-09-12T10:18:14;4.03;;;1.98;;
67997;SDS011;54773;53.388;-1.504;2023-09-12T10:21:04;5.13;;;2.80;;
67997;SDS011;54773;53.388;-1.504;2023-09-12T10:23:50;5.15;;;2.90;;
67997;SDS011;54773;53.388;-1.504;2023-09-12T10:26:34;6.17;;;3.43;;
67997;SDS011;54773;53.388;-1.504;2023-09-12T10:29:19;4.95;;;2.72;;
67997;SDS011;54773;53.388;-1.504;2023-09-12T10:32:03;8.52;;;2.85;;
67997;SDS011;54773;53.388;-1.504;2023-09-12T10:34:48;5.07;;;2.88;;
67997;SDS011;54773;53.388;-1.504;2023-09-12T10:37:33;6.32;;;2.90;;
67997;SDS011;54773;53.388;-1.504;2023-09-12T10:40:19;5.45;;;3.55;;
67997;SDS011;54773;53.388;-1.504;2023-09-12T10:43:04;6.70;;;3.63;;
67997;SDS011;54773;53.388;-1.504;2023-09-12T10:45:49;5.65;;;3.50;;
67997;SDS011;54773;53.388;-1.504;2023-09-12T10:48:36;6.72;;;3.83;;
67997;SDS011;54773;53.388;-1.504;2023-09-12T10:51:21;4.82;;;3.22;;
67997;SDS011;54773;53.388;-1.504;2023-09-12T10:54:05;4.82;;;3.00;;
67997;SDS011;54773;53.388;-1.504;2023-09-12T10:57:10;4.80;;;2.33;;
67997;SDS011;54773;53.388;-1.504;2023-09-12T11:02:54;4.22;;;2.10;;
67997;SDS011;54773;53.388;-1.504;2023-09-12T11:05:54;5.00;;;2.42;;
67997;SDS011;54773;53.388;-1.504;2023-09-12T11:12:03;4.10;;;1.63;;
67997;SDS011;54773;53.388;-1.504;2023-09-12T11:15:04;4.05;;;2.05;;
67997;SDS011;54773;53.388;-1.504;2023-09-12T11:17:51;3.58;;;1.63;;
67997;SDS011;54773;53.388;-1.504;2023-09-12T11:21:00;4.38;;;1.92;;
67997;SDS011;54773;53.388;-1.504;2023-09-12T11:23:53;5.10;;;1.80;;
67997;SDS011;54773;53.388;-1.504;2023-09-12T11:29:51;3.90;;;2.05;;
67997;SDS011;54773;53.388;-1.504;2023-09-12T11:32:36;4.15;;;2.40;;
67997;SDS011;54773;53.388;-1.504;2023-09-12T11:35:25;4.45;;;2.50;;
67997;SDS011;54773;53.388;-1.504;2023-09-12T11:38:10;5.05;;;2.85;;
67997;SDS011;54773;53.388;-1.504;2023-09-12T11:40:58;5.20;;;3.17;;
67997;SDS011;54773;53.388;-1.504;2023-09-12T11:43:43;4.28;;;2.42;;
67997;SDS011;54773;53.388;-1.504;2023-09-12T11:46:27;3.72;;;2.20;;
67997;SDS011;54773;53.388;-1.504;2023-09-12T11:49:12;3.78;;;2.28;;
67997;SDS011;54773;53.388;-1.504;2023-09-12T11:52:07;4.53;;;2.47;;
67997;SDS011;54773;53.388;-1.504;2023-09-12T11:54:53;3.83;;;2.53;;
67997;SDS011;54773;53.388;-1.504;2023-09-12T11:57:40;3.97;;;2.15;;
67997;SDS011;54773;53.388;-1.504;2023-09-12T12:00:24;4.07;;;2.35;;
67997;SDS011;54773;53.388;-1.504;2023-09-12T12:03:09;4.82;;;2.40;;
67997;SDS011;54773;53.388;-1.504;2023-09-12T12:05:54;4.13;;;2.08;;
67997;SDS011;54773;53.388;-1.504;2023-09-12T12:08:39;5.05;;;2.38;;
67997;SDS011;54773;53.388;-1.504;2023-09-12T12:11:22;3.90;;;1.98;;
67997;SDS011;54773;53.388;-1.504;2023-09-12T12:14:16;4.95;;;2.40;;
67997;SDS011;54773;53.388;-1.504;2023-09-12T12:17:08;4.18;;;2.53;;
67997;SDS011;54773;53.388;-1.504;2023-09-12T12:19:53;5.60;;;2.13;;
67997;SDS011;54773;53.388;-1.504;2023-09-12T12:22:38;4.88;;;2.35;;
67997;SDS011;54773;53.388;-1.504;2023-09-12T12:25:22;4.85;;;2.53;;
67997;SDS011;54773;53.388;-1.504;2023-09-12T12:28:07;5.20;;;2.97;;
67997;SDS011;54773;53.388;-1.504;2023-09-12T12:30:55;4.88;;;2.90;;
67997;SDS011;54773;53.388;-1.504;2023-09-12T12:33:39;4.97;;;2.50;;
67997;SDS011;54773;53.388;-1.504;2023-09-12T12:36:23;7.05;;;3.80;;
67997;SDS011;54773;53.388;-1.504;2023-09-12T12:39:07;4.43;;;2.37;;
67997;SDS011;54773;53.388;-1.504;2023-09-12T12:41:54;5.43;;;2.70;;
67997;SDS011;54773;53.388;-1.504;2023-09-12T12:44:38;4.65;;;2.72;;
67997;SDS011;54773;53.388;-1.504;2023-09-12T12:47:25;3.92;;;2.40;;
67997;SDS011;54773;53.388;-1.504;2023-09-12T12:50:12;5.20;;;2.60;;
67997;SDS011;54773;53.388;-1.504;2023-09-12T12:52:57;5.50;;;3.10;;
67997;SDS011;54773;53.388;-1.504;2023-09-12T12:55:40;5.07;;;3.30;;
67997;SDS011;54773;53.388;-1.504;2023-09-12T12:58:25;4.07;;;2.63;;
67997;SDS011;54773;53.388;-1.504;2023-09-12T13:01:09;5.27;;;3.00;;
67997;SDS011;54773;53.388;-1.504;2023-09-12T13:03:53;5.15;;;3.28;;
67997;SDS011;54773;53.388;-1.504;2023-09-12T13:06:40;5.45;;;2.95;;
67997;SDS011;54773;53.388;-1.504;2023-09-12T13:09:24;5.03;;;2.75;;
67997;SDS011;54773;53.388;-1.504;2023-09-12T13:12:08;6.70;;;3.00;;
67997;SDS011;54773;53.388;-1.504;2023-09-12T13:14:53;4.40;;;2.83;;
67997;SDS011;54773;53.388;-1.504;2023-09-12T13:17:37;5.25;;;3.10;;
67997;SDS011;54773;53.388;-1.504;2023-09-12T13:20:21;5.28;;;3.25;;
67997;SDS011;54773;53.388;-1.504;2023-09-12T13:23:06;6.00;;;3.45;;
67997;SDS011;54773;53.388;-1.504;2023-09-12T13:25:50;7.40;;;3.47;;
67997;SDS011;54773;53.388;-1.504;2023-09-12T13:28:37;5.80;;;3.38;;
67997;SDS011;54773;53.388;-1.504;2023-09-12T13:31:21;6.03;;;3.40;;
67997;SDS011;54773;53.388;-1.504;2023-09-12T13:34:06;6.45;;;3.10;;
67997;SDS011;54773;53.388;-1.504;2023-09-12T13:36:50;5.53;;;2.95;;
67997;SDS011;54773;53.388;-1.504;2023-09-12T13:39:34;4.95;;;2.78;;
67997;SDS011;54773;53.388;-1.504;2023-09-12T13:42:18;5.70;;;2.20;;
67997;SDS011;54773;53.388;-1.504;2023-09-12T13:45:04;3.90;;;1.80;;
67997;SDS011;54773;53.388;-1.504;2023-09-12T13:47:49;3.50;;;1.70;;
67997;SDS011;54773;53.388;-1.504;2023-09-12T13:50:33;5.20;;;1.73;;
67997;SDS011;54773;53.388;-1.504;2023-09-12T13:53:17;3.53;;;1.50;;
67997;SDS011;54773;53.388;-1.504;2023-09-12T13:56:02;4.60;;;1.70;;
67997;SDS011;54773;53.388;-1.504;2023-09-12T13:58:47;4.30;;;1.85;;
67997;SDS011;54773;53.388;-1.504;2023-09-12T14:01:31;4.32;;;1.70;;
67997;SDS011;54773;53.388;-1.504;2023-09-12T14:04:15;4.43;;;1.60;;
67997;SDS011;54773;53.388;-1.504;2023-09-12T14:07:00;4.78;;;1.85;;
67997;SDS011;54773;53.388;-1.504;2023-09-12T14:09:47;4.78;;;1.60;;
67997;SDS011;54773;53.388;-1.504;2023-09-12T14:12:33;4.32;;;1.20;;
67997;SDS011;54773;53.388;-1.504;2023-09-12T14:15:17;4.63;;;1.70;;
67997;SDS011;54773;53.388;-1.504;2023-09-12T14:18:01;3.95;;;1.50;;
67997;SDS011;54773;53.388;-1.504;2023-09-12T14:20:46;4.25;;;1.60;;
67997;SDS011;54773;53.388;-1.504;2023-09-12T14:23:30;2.70;;;1.20;;
67997;SDS011;54773;53.388;-1.504;2023-09-12T14:26:14;3.53;;;1.30;;
67997;SDS011;54773;53.388;-1.504;2023-09-12T14:28:58;3.50;;;1.45;;
67997;SDS011;54773;53.388;-1.504;2023-09-12T14:31:43;4.15;;;1.60;;
67997;SDS011;54773;53.388;-1.504;2023-09-12T14:34:33;4.80;;;1.60;;
67997;SDS011;54773;53.388;-1.504;2023-09-12T14:37:17;7.47;;;2.40;;
67997;SDS011;54773;53.388;-1.504;2023-09-12T14:40:03;5.88;;;3.10;;
67997;SDS011;54773;53.388;-1.504;2023-09-12T14:42:48;6.60;;;2.83;;
67997;SDS011;54773;53.388;-1.504;2023-09-12T14:45:33;6.07;;;3.20;;
67997;SDS011;54773;53.388;-1.504;2023-09-12T14:48:17;5.32;;;2.97;;
67997;SDS011;54773;53.388;-1.504;2023-09-12T14:51:02;7.18;;;2.90;;
67997;SDS011;54773;53.388;-1.504;2023-09-12T14:53:46;5.50;;;3.13;;
67997;SDS011;54773;53.388;-1.504;2023-09-12T14:56:34;6.05;;;2.97;;
67997;SDS011;54773;53.388;-1.504;2023-09-12T14:59:19;6.20;;;3.13;;
67997;SDS011;54773;53.388;-1.504;2023-09-12T15:02:04;4.70;;;2.75;;
67997;SDS011;54773;53.388;-1.504;2023-09-12T15:04:48;4.68;;;2.50;;
67997;SDS011;54773;53.388;-1.504;2023-09-12T15:07:32;5.57;;;2.88;;
67997;SDS011;54773;53.388;-1.504;2023-09-12T15:10:21;6.15;;;2.60;;
67997;SDS011;54773;53.388;-1.504;2023-09-12T15:13:05;4.85;;;2.20;;
67997;SDS011;54773;53.388;-1.504;2023-09-12T15:15:49;5.25;;;2.10;;
67997;SDS011;54773;53.388;-1.504;2023-09-12T15:18:33;4.85;;;2.35;;
67997;SDS011;54773;53.388;-1.504;2023-09-12T15:21:24;5.80;;;2.75;;
67997;SDS011;54773;53.388;-1.504;2023-09-12T15:24:08;3.83;;;2.10;;
67997;SDS011;54773;53.388;-1.504;2023-09-12T15:26:52;6.18;;;2.72;;
67997;SDS011;54773;53.388;-1.504;2023-09-12T15:29:36;5.80;;;2.80;;
67997;SDS011;54773;53.388;-1.504;2023-09-12T15:32:23;5.07;;;2.45;;
67997;SDS011;54773;53.388;-1.504;2023-09-12T15:35:07;4.40;;;2.38;;
67997;SDS011;54773;53.388;-1.504;2023-09-12T15:37:54;5.43;;;2.50;;
67997;SDS011;54773;53.388;-1.504;2023-09-12T15:40:38;5.40;;;1.77;;
67997;SDS011;54773;53.388;-1.504;2023-09-12T15:43:22;4.87;;;1.77;;
67997;SDS011;54773;53.388;-1.504;2023-09-12T15:46:10;5.45;;;2.05;;
67997;SDS011;54773;53.388;-1.504;2023-09-12T15:49:03;5.05;;;1.80;;
67997;SDS011;54773;53.388;-1.504;2023-09-12T15:51:48;6.78;;;3.60;;
67997;SDS011;54773;53.388;-1.504;2023-09-12T15:54:34;4.72;;;1.33;;
67997;SDS011;54773;53.388;-1.504;2023-09-12T15:57:27;4.68;;;1.42;;
67997;SDS011;54773;53.388;-1.504;2023-09-12T16:00:11;4.63;;;1.67;;
67997;SDS011;54773;53.388;-1.504;2023-09-12T16:02:58;6.10;;;1.70;;
67997;SDS011;54773;53.388;-1.504;2023-09-12T16:05:42;3.80;;;1.37;;
67997;SDS011;54773;53.388;-1.504;2023-09-12T16:08:29;3.17;;;1.35;;
67997;SDS011;54773;53.388;-1.504;2023-09-12T16:11:24;6.32;;;1.55;;
67997;SDS011;54773;53.388;-1.504;2023-09-12T16:14:15;4.97;;;2.13;;
67997;SDS011;54773;53.388;-1.504;2023-09-12T16:17:03;6.57;;;2.93;;
67997;SDS011;54773;53.388;-1.504;2023-09-12T16:20:05;5.25;;;1.70;;
67997;SDS011;54773;53.388;-1.504;2023-09-12T16:22:59;4.63;;;1.35;;
67997;SDS011;54773;53.388;-1.504;2023-09-12T16:25:43;6.90;;;1.65;;
67997;SDS011;54773;53.388;-1.504;2023-09-12T16:28:35;5.50;;;1.80;;
67997;SDS011;54773;53.388;-1.504;2023-09-12T16:31:29;4.00;;;1.65;;
67997;SDS011;54773;53.388;-1.504;2023-09-12T16:50:32;5.28;;;2.40;;